createdAt,value
2018-07-26T00:00:26.225Z,0
2018-07-26T00:05:26.028Z,0
2018-07-26T00:10:26.623Z,0
2018-07-26T00:15:26.448Z,0
2018-07-26T00:20:26.213Z,0
2018-07-26T00:25:26.803Z,0
2018-07-26T00:30:26.182Z,0
2018-07-26T00:35:25.977Z,0
2018-07-26T00:40:26.370Z,0
2018-07-26T00:45:26.819Z,0
2018-07-26T00:50:26.244Z,0
2018-07-26T00:55:26.057Z,0
2018-07-26T01:00:26.176Z,0
2018-07-26T01:05:26.510Z,0
2018-07-26T01:10:25.927Z,0
2018-07-26T01:15:26.308Z,0
2018-07-26T01:20:26.798Z,0
2018-07-26T01:25:26.323Z,0
2018-07-26T01:30:26.789Z,0
2018-07-26T01:35:26.263Z,0
2018-07-26T01:40:26.719Z,0
2018-07-26T01:45:26.165Z,0
2018-07-26T01:50:26.394Z,0
2018-07-26T01:55:26.045Z,0
2018-07-26T02:00:26.489Z,0
2018-07-26T02:05:26.604Z,0
2018-07-26T02:10:26.651Z,0
2018-07-26T02:15:26.946Z,0
2018-07-26T02:20:26.448Z,0
2018-07-26T02:25:26.825Z,0
2018-07-26T02:30:26.313Z,0
2018-07-26T02:35:26.070Z,0
2018-07-26T02:40:26.457Z,0
2018-07-26T02:45:26.935Z,0
2018-07-26T02:50:26.338Z,0
2018-07-26T02:55:26.728Z,0
2018-07-26T03:00:26.130Z,0
2018-07-26T03:05:26.727Z,0
2018-07-26T03:10:26.943Z,0
2018-07-26T03:15:26.741Z,0
2018-07-26T03:20:27.107Z,0
2018-07-26T03:25:26.438Z,0
2018-07-26T03:30:26.926Z,0
2018-07-26T03:35:26.437Z,0
2018-07-26T03:40:26.943Z,0
2018-07-26T03:45:26.373Z,0
2018-07-26T03:50:26.800Z,0
2018-07-26T03:55:26.378Z,0
2018-07-26T04:00:26.864Z,0
2018-07-26T04:05:26.492Z,0
2018-07-26T04:10:26.325Z,0
2018-07-26T04:15:26.798Z,0
2018-07-26T04:20:26.287Z,0
2018-07-26T04:25:26.720Z,0
2018-07-26T04:30:26.458Z,0
2018-07-26T04:35:26.239Z,0
2018-07-26T04:40:27.038Z,0
2018-07-26T04:45:26.520Z,0
2018-07-26T04:50:26.393Z,0
2018-07-26T04:55:27.026Z,0
2018-07-26T05:00:26.441Z,0
2018-07-26T05:05:27.234Z,0
2018-07-26T05:10:26.965Z,0
2018-07-26T05:15:26.809Z,0
2018-07-26T05:20:26.692Z,0
2018-07-26T05:25:26.679Z,0
2018-07-26T05:30:27.135Z,0
2018-07-26T05:35:27.115Z,0
2018-07-26T05:40:26.578Z,0
2018-07-26T05:45:26.971Z,0
2018-07-26T05:50:26.458Z,0
2018-07-26T05:55:26.981Z,0
2018-07-26T06:00:26.408Z,0
2018-07-26T06:05:27.095Z,0
2018-07-26T06:10:26.913Z,0
2018-07-26T06:15:26.279Z,0
2018-07-26T06:20:27.188Z,0
2018-07-26T06:25:26.640Z,0
2018-07-26T06:30:27.022Z,0
2018-07-26T06:35:26.577Z,0
2018-07-26T06:40:26.227Z,0
2018-07-26T06:45:26.802Z,0
2018-07-26T06:50:27.224Z,0
2018-07-26T06:55:26.749Z,0
2018-07-26T07:00:27.215Z,0
2018-07-26T07:05:26.632Z,0
2018-07-26T07:10:27.066Z,0
2018-07-26T07:15:26.345Z,0
2018-07-26T07:20:26.843Z,0
2018-07-26T07:25:27.396Z,0
2018-07-26T07:30:26.745Z,0
2018-07-26T07:35:27.247Z,0
2018-07-26T07:40:26.721Z,0
2018-07-26T07:45:26.461Z,0
2018-07-26T07:50:26.397Z,0
2018-07-26T07:55:27.119Z,0
2018-07-26T08:00:27.023Z,0
2018-07-26T08:05:26.882Z,0
2018-07-26T08:10:27.090Z,0
2018-07-26T08:15:27.098Z,0
2018-07-26T08:20:26.966Z,0
2018-07-26T08:25:27.061Z,0
2018-07-26T08:30:27.109Z,0
2018-07-26T08:35:27.421Z,0
2018-07-26T08:40:27.126Z,0
2018-07-26T08:45:26.820Z,0
2018-07-26T08:50:26.619Z,0
2018-07-26T08:55:27.319Z,0
2018-07-26T09:00:26.438Z,0
2018-07-26T09:05:27.248Z,0
2018-07-26T09:10:27.180Z,0
2018-07-26T09:15:26.927Z,0
2018-07-26T09:20:26.615Z,0
2018-07-26T09:25:26.460Z,0.5
2018-07-26T09:30:27.180Z,0.5
2018-07-26T09:35:26.691Z,0.6
2018-07-26T09:40:26.692Z,0.6
2018-07-26T09:45:27.479Z,0.7
2018-07-26T09:50:27.189Z,0.7
2018-07-26T09:55:26.874Z,0.8
2018-07-26T10:00:26.586Z,0.8
2018-07-26T10:05:27.477Z,0.8
2018-07-26T10:10:26.573Z,0.8
2018-07-26T10:15:27.294Z,0.9
2018-07-26T10:20:27.125Z,0.9
2018-07-26T10:25:26.830Z,1.2
2018-07-26T10:30:27.217Z,1.2
2018-07-26T10:35:26.941Z,1.3
2018-07-26T10:40:26.673Z,1.3
2018-07-26T10:45:27.342Z,1.2
2018-07-26T10:50:27.098Z,1.2
2018-07-26T10:55:27.015Z,1.3
2018-07-26T11:00:26.824Z,1.3
2018-07-26T11:05:26.575Z,1.3
2018-07-26T11:10:27.335Z,1.3
2018-07-26T11:15:27.044Z,0.9
2018-07-26T11:20:26.751Z,0.9
2018-07-26T11:25:27.452Z,0
2018-07-26T11:30:27.439Z,0
2018-07-26T11:35:27.284Z,1.6
2018-07-26T11:40:27.015Z,1.6
2018-07-26T11:45:26.759Z,1.6
2018-07-26T11:50:27.480Z,1.6
2018-07-26T11:55:27.260Z,1.5
2018-07-26T12:00:26.928Z,1.5
2018-07-26T12:05:26.757Z,0
2018-07-26T12:10:26.691Z,0
2018-07-26T12:15:27.330Z,1.1
2018-07-26T12:20:27.074Z,1.1
2018-07-26T12:25:26.879Z,1.4
2018-07-26T12:30:26.895Z,1.4
2018-07-26T12:35:26.708Z,0.3
2018-07-26T12:40:26.778Z,0.3
2018-07-26T12:45:27.690Z,1.4
2018-07-26T12:50:27.468Z,1.4
2018-07-26T12:55:26.671Z,0.8
2018-07-26T13:00:27.428Z,0.8
2018-07-26T13:05:27.335Z,0.7
2018-07-26T13:10:27.127Z,0.7
2018-07-26T13:15:26.924Z,0
2018-07-26T13:20:27.665Z,0
2018-07-26T13:25:27.429Z,0
2018-07-26T13:30:26.820Z,0
2018-07-26T13:35:27.090Z,0.3
2018-07-26T13:40:26.953Z,0.3
2018-07-26T13:45:26.764Z,0.7
2018-07-26T13:50:27.565Z,0.7
2018-07-26T13:55:27.316Z,0
2018-07-26T14:00:27.064Z,0
2018-07-26T14:05:27.579Z,0
2018-07-26T14:10:27.709Z,0
2018-07-26T14:15:27.528Z,0
2018-07-26T14:20:27.280Z,0
2018-07-26T14:25:27.231Z,0
2018-07-26T14:30:26.944Z,0
2018-07-26T14:35:27.669Z,0
2018-07-26T14:40:27.416Z,0
2018-07-26T14:45:27.131Z,0
2018-07-26T14:50:26.928Z,0
2018-07-26T14:55:27.716Z,0
2018-07-26T15:00:27.526Z,0
2018-07-26T15:05:27.267Z,0
2018-07-26T15:10:27.073Z,0
2018-07-26T15:15:27.715Z,0
2018-07-26T15:20:27.628Z,0
2018-07-26T15:25:27.579Z,0
2018-07-26T15:30:27.304Z,0
2018-07-26T15:35:27.128Z,0
2018-07-26T15:40:26.897Z,0
2018-07-26T15:45:27.599Z,0
2018-07-26T15:50:27.406Z,0
2018-07-26T15:55:27.046Z,0
2018-07-26T16:00:27.413Z,0
2018-07-26T16:05:27.204Z,0
2018-07-26T16:10:27.067Z,0
2018-07-26T16:15:27.310Z,0
2018-07-26T16:20:27.108Z,0
2018-07-26T16:25:26.962Z,0
2018-07-26T16:30:27.683Z,0
2018-07-26T16:35:27.484Z,0
2018-07-26T16:40:27.273Z,0
2018-07-26T16:45:27.076Z,0
2018-07-26T16:50:27.761Z,0
2018-07-26T16:55:27.444Z,0
2018-07-26T17:00:27.264Z,0
2018-07-26T17:05:27.036Z,0
2018-07-26T17:10:27.949Z,0
2018-07-26T17:15:27.836Z,0
2018-07-26T17:20:27.637Z,0
2018-07-26T17:25:27.269Z,0
2018-07-26T17:30:27.131Z,0
2018-07-26T17:35:26.983Z,0
2018-07-26T17:40:27.956Z,0
2018-07-26T17:45:27.729Z,0
2018-07-26T17:50:27.506Z,0
2018-07-26T17:55:27.274Z,0
2018-07-26T18:00:27.951Z,0
2018-07-26T18:05:27.780Z,0
2018-07-26T18:10:27.560Z,0
2018-07-26T18:15:27.506Z,0
2018-07-26T18:20:27.383Z,0
2018-07-26T18:25:27.143Z,0
2018-07-26T18:30:27.889Z,0
2018-07-26T18:35:27.570Z,0
2018-07-26T18:40:27.451Z,0
2018-07-26T18:45:27.143Z,0
2018-07-26T18:50:27.945Z,0
2018-07-26T18:55:27.732Z,0
2018-07-26T19:00:27.455Z,0
2018-07-26T19:05:27.834Z,0
2018-07-26T19:10:27.752Z,0
2018-07-26T19:15:27.653Z,0
2018-07-26T19:20:27.421Z,0
2018-07-26T19:25:27.183Z,0
2018-07-26T19:30:27.871Z,0
2018-07-26T19:35:27.765Z,0
2018-07-26T19:40:27.613Z,0
2018-07-26T19:45:27.240Z,0
2018-07-26T19:50:28.229Z,0
2018-07-26T19:55:27.951Z,0
2018-07-26T20:00:27.623Z,0
2018-07-26T20:05:27.428Z,0
2018-07-26T20:10:27.373Z,0
2018-07-26T20:15:27.217Z,0
2018-07-26T20:20:27.992Z,0
2018-07-26T20:25:27.687Z,0
2018-07-26T20:30:27.402Z,0
2018-07-26T20:35:28.125Z,0
2018-07-26T20:40:27.804Z,0
2018-07-26T20:45:27.535Z,0
2018-07-26T20:50:27.289Z,0
2018-07-26T20:55:27.976Z,0
2018-07-26T21:00:27.707Z,0
2018-07-26T21:05:27.468Z,0
2018-07-26T21:10:27.227Z,0
2018-07-26T21:15:27.234Z,0
2018-07-26T21:20:27.996Z,0
2018-07-26T21:25:27.770Z,0
2018-07-26T21:30:27.455Z,0
2018-07-26T21:35:27.875Z,0
2018-07-26T21:40:27.715Z,0
2018-07-26T21:45:27.393Z,0
2018-07-26T21:50:28.166Z,0
2018-07-26T21:55:27.935Z,0
2018-07-26T22:00:27.737Z,0
2018-07-26T22:05:27.768Z,0
2018-07-26T22:10:27.737Z,0
2018-07-26T22:15:27.348Z,0
2018-07-26T22:20:28.064Z,0
2018-07-26T22:25:27.829Z,0
2018-07-26T22:30:27.552Z,0
2018-07-26T22:35:28.233Z,0
2018-07-26T22:40:27.937Z,0
2018-07-26T22:45:27.597Z,0
2018-07-26T22:50:27.365Z,0
2018-07-26T22:55:28.151Z,0
2018-07-26T23:00:28.139Z,0
2018-07-26T23:05:28.259Z,0
2018-07-26T23:10:27.991Z,0
2018-07-26T23:15:27.501Z,0
2018-07-26T23:20:28.330Z,0
2018-07-26T23:25:28.005Z,0
2018-07-26T23:30:27.685Z,0
2018-07-26T23:35:28.411Z,0
2018-07-26T23:40:28.103Z,0
2018-07-26T23:45:27.806Z,0
2018-07-26T23:50:27.556Z,0
2018-07-26T23:55:28.300Z,0
